Time;durP1;ratioP1;P1;durP2;ratioP2;P2;SDS_P1;SDS_P2;PMS_P1;PMS_P2;Temp;Humidity;BMP_temperature;BMP_pressure;BME280_temperature;BME280_humidity;BME280_pressure;Samples;Min_cycle;Max_cycle;Signal;HPM_P1;HPM_P2
2023/08/18 00:00:23;;;;;;;2.67;1.90;;;;;;;15.77;100.00;102071.09;4979866;28;20269;-41
2023/08/18 00:02:49;;;;;;;5.38;2.55;;;;;;;15.78;100.00;102067.41;4981052;28;20261;-41
2023/08/18 00:05:15;;;;;;;6.03;2.35;;;;;;;15.76;100.00;102064.78;4979890;28;20233;-41
2023/08/18 00:07:41;;;;;;;3.53;2.30;;;;;;;15.74;100.00;102061.28;4980490;28;20217;-43
2023/08/18 00:10:08;;;;;;;4.32;2.85;;;;;;;15.69;100.00;102057.81;4971745;28;20209;-41
2023/08/18 00:12:34;;;;;;;3.75;2.83;;;;;;;15.73;100.00;102055.94;4978300;28;20524;-42
2023/08/18 00:15:00;;;;;;;6.80;2.72;;;;;;;15.73;100.00;102051.41;4977787;28;20190;-42
2023/08/18 00:17:25;;;;;;;7.82;3.15;;;;;;;15.76;100.00;102051.25;4981704;28;20208;-43
2023/08/18 00:19:51;;;;;;;5.75;3.08;;;;;;;15.79;100.00;102059.25;4978663;28;20223;-43
2023/08/18 00:22:17;;;;;;;9.77;3.28;;;;;;;15.76;100.00;102055.78;4968888;28;20225;-41
2023/08/18 00:24:42;;;;;;;7.97;3.53;;;;;;;15.80;100.00;102046.63;4982568;28;20177;-42
2023/08/18 00:27:08;;;;;;;6.35;3.05;;;;;;;15.80;100.00;102052.91;4979523;28;20200;-42
2023/08/18 00:29:33;;;;;;;6.90;3.13;;;;;;;15.80;100.00;102054.72;4981909;28;20882;-42
2023/08/18 00:31:59;;;;;;;8.60;3.03;;;;;;;15.84;100.00;102042.84;4976809;28;20187;-43
2023/08/18 00:34:25;;;;;;;7.03;3.47;;;;;;;15.81;100.00;102048.41;4984304;28;20639;-42
2023/08/18 00:36:51;;;;;;;6.85;3.10;;;;;;;15.84;100.00;102041.03;4979634;28;20817;-44
2023/08/18 00:39:16;;;;;;;9.75;3.90;;;;;;;15.82;100.00;102044.75;4974195;28;20198;-42
2023/08/18 00:41:42;;;;;;;5.72;3.10;;;;;;;15.88;100.00;102049.91;4962676;28;20186;-41
2023/08/18 00:44:09;;;;;;;11.27;3.78;;;;;;;15.86;100.00;102055.34;4981669;28;20236;-42
2023/08/18 00:46:35;;;;;;;9.73;3.20;;;;;;;15.87;100.00;102053.53;4979122;28;20182;-42
2023/08/18 00:49:04;;;;;;;7.35;2.92;;;;;;;15.98;100.00;102047.69;4976842;28;20197;-41
2023/08/18 00:51:32;;;;;;;6.65;3.00;;;;;;;15.90;100.00;102041.75;4981470;28;20181;-42
2023/08/18 00:53:58;;;;;;;10.27;3.17;;;;;;;15.85;100.00;102039.19;4979811;28;20592;-38
2023/08/18 00:56:24;;;;;;;6.75;3.20;;;;;;;15.87;100.00;102042.72;4967687;28;20204;-42
2023/08/18 00:58:51;;;;;;;8.18;2.80;;;;;;;15.90;100.00;102042.63;4964713;28;20373;-41
2023/08/18 01:01:17;;;;;;;5.68;2.45;;;;;;;15.94;100.00;102041.56;4969446;28;20604;-41
2023/08/18 01:03:43;;;;;;;7.10;3.05;;;;;;;15.90;100.00;102031.81;4981754;28;20190;-42
2023/08/18 01:06:09;;;;;;;6.78;2.95;;;;;;;15.92;100.00;102032.63;4980885;28;20196;-41
2023/08/18 01:08:34;;;;;;;9.13;2.92;;;;;;;15.86;100.00;102032.88;4984143;28;20255;-41
2023/08/18 01:11:34;;;;;;;7.90;2.47;;;;;;;15.86;100.00;102028.34;4983951;28;20217;-41
2023/08/18 01:14:26;;;;;;;2.75;1.90;;;;;;;15.88;100.00;102022.00;4987718;28;20187;-41
2023/08/18 01:16:59;;;;;;;6.10;2.63;;;;;;;15.78;100.00;102024.19;4971986;28;20277;-42
2023/08/18 01:19:26;;;;;;;5.55;2.30;;;;;;;15.83;100.00;102023.06;4980737;28;20679;-42
2023/08/18 01:21:55;;;;;;;5.32;2.30;;;;;;;15.84;100.00;102018.53;4967008;28;20786;-43
2023/08/18 01:24:24;;;;;;;9.38;2.33;;;;;;;15.84;100.00;102018.53;4963329;28;20197;-43
2023/08/18 01:26:51;;;;;;;6.90;3.28;;;;;;;15.82;100.00;102007.78;4981209;28;20181;-41
2023/08/18 01:29:18;;;;;;;6.03;1.95;;;;;;;15.80;100.00;102014.19;4969187;28;20233;-42
2023/08/18 01:31:47;;;;;;;8.25;2.17;;;;;;;15.82;100.00;102020.41;4985658;28;20200;-42
2023/08/18 01:34:18;;;;;;;5.82;2.00;;;;;;;15.86;100.00;102014.81;4976848;28;20185;-42
2023/08/18 01:36:46;;;;;;;3.42;1.88;;;;;;;15.90;100.00;101998.50;4975732;28;20252;-43
2023/08/18 01:39:13;;;;;;;5.07;2.20;;;;;;;15.79;100.00;102001.63;4972843;28;20365;-42
2023/08/18 01:41:41;;;;;;;4.13;2.30;;;;;;;15.78;100.00;101999.88;4983976;28;20185;-42
2023/08/18 01:44:07;;;;;;;3.60;1.90;;;;;;;15.76;100.00;101997.22;4977460;28;20181;-40
2023/08/18 01:46:32;;;;;;;5.82;2.10;;;;;;;15.77;100.00;102006.22;4980457;28;20200;-43
2023/08/18 01:48:59;;;;;;;4.78;1.63;;;;;;;15.82;100.00;101998.81;4979490;28;20224;-42
2023/08/18 01:51:25;;;;;;;4.60;1.90;;;;;;;15.68;100.00;101998.44;4979612;28;20555;-42
2023/08/18 01:53:50;;;;;;;7.35;1.95;;;;;;;15.71;100.00;101998.34;4975557;28;20205;-42
2023/08/18 01:56:16;;;;;;;3.78;1.77;;;;;;;15.73;100.00;101999.19;4980536;28;20189;-42
2023/08/18 01:58:41;;;;;;;4.80;1.63;;;;;;;15.70;100.00;102012.78;4970719;28;20255;-43
2023/08/18 02:01:07;;;;;;;7.32;2.28;;;;;;;15.70;100.00;102001.97;4956731;28;20182;-43
2023/08/18 02:03:33;;;;;;;4.00;1.60;;;;;;;15.70;100.00;102001.97;4976835;28;20228;-41
2023/08/18 02:05:58;;;;;;;3.72;1.80;;;;;;;15.59;100.00;101995.19;4984469;28;20613;-42
2023/08/18 02:08:25;;;;;;;3.28;1.48;;;;;;;15.58;100.00;101989.84;4963558;28;20206;-41
2023/08/18 02:10:50;;;;;;;2.08;1.65;;;;;;;15.64;100.00;101990.47;4979111;28;20236;-42
2023/08/18 02:13:16;;;;;;;4.05;1.58;;;;;;;15.72;100.00;101987.50;4976851;28;20197;-44
2023/08/18 02:15:46;;;;;;;4.80;1.70;;;;;;;15.63;100.00;101972.53;4966626;28;20219;-42
2023/08/18 02:18:11;;;;;;;3.47;1.40;;;;;;;15.53;100.00;101973.81;4977211;28;20746;-42
2023/08/18 02:20:38;;;;;;;2.92;1.40;;;;;;;15.54;100.00;101972.88;4982537;28;20189;-42
2023/08/18 02:23:04;;;;;;;3.33;1.50;;;;;;;15.51;100.00;101981.13;4983008;28;20193;-38
2023/08/18 02:25:30;;;;;;;4.25;1.42;;;;;;;15.57;100.00;101974.59;4979643;28;20255;-41
2023/08/18 02:27:55;;;;;;;2.45;1.40;;;;;;;15.57;100.00;101967.38;4977717;28;20653;-41
2023/08/18 02:30:21;;;;;;;3.00;1.52;;;;;;;15.54;100.00;101978.28;4978141;28;20202;-43
2023/08/18 02:32:47;;;;;;;4.32;1.58;;;;;;;15.60;100.00;101966.34;4979979;28;20272;-43
2023/08/18 02:35:12;;;;;;;3.03;1.70;;;;;;;15.56;100.00;101967.41;4967264;28;20751;-41
2023/08/18 02:37:38;;;;;;;5.75;1.83;;;;;;;15.58;100.00;101962.84;4960838;28;20279;-44
2023/08/18 02:40:06;;;;;;;7.30;1.73;;;;;;;15.60;100.00;101969.94;4959335;28;20769;-46
2023/08/18 02:42:33;;;;;;;6.28;1.70;;;;;;;15.55;100.00;101950.34;4981052;28;20224;-46
2023/08/18 02:44:59;;;;;;;2.47;1.50;;;;;;;15.54;100.00;101948.56;4974840;28;20186;-46
2023/08/18 02:47:25;;;;;;;3.67;1.80;;;;;;;15.60;100.00;101940.22;4974970;28;20188;-45
2023/08/18 02:49:51;;;;;;;2.67;1.70;;;;;;;15.48;100.00;101950.63;4960362;28;20215;-47
2023/08/18 02:52:16;;;;;;;2.97;1.98;;;;;;;15.45;100.00;101940.84;4978432;28;20181;-47
2023/08/18 02:54:42;;;;;;;4.47;2.13;;;;;;;15.48;100.00;101956.94;4976631;28;20281;-46
2023/08/18 02:57:07;;;;;;;4.38;1.90;;;;;;;15.47;100.00;101955.16;4966200;28;20656;-48
2023/08/18 02:59:33;;;;;;;3.15;2.00;;;;;;;15.44;100.00;101953.47;4975502;28;20691;-46
2023/08/18 03:02:00;;;;;;;2.70;1.70;;;;;;;15.45;100.00;101955.22;4962014;28;20564;-47
2023/08/18 03:04:25;;;;;;;5.00;1.98;;;;;;;15.43;100.00;101951.69;4974355;28;20284;-46
2023/08/18 03:06:51;;;;;;;4.95;1.90;;;;;;;15.32;100.00;101958.50;4978679;28;20190;-46
2023/08/18 03:09:19;;;;;;;3.13;2.00;;;;;;;15.31;100.00;101951.34;4974962;28;20197;-48
2023/08/18 03:11:45;;;;;;;5.63;2.30;;;;;;;15.28;100.00;101956.84;4961660;28;20228;-47
2023/08/18 03:14:12;;;;;;;4.88;2.22;;;;;;;15.34;100.00;101957.47;4957339;28;20622;-46
2023/08/18 03:16:37;;;;;;;5.63;2.00;;;;;;;15.22;100.00;101952.59;4966662;28;20178;-45
2023/08/18 03:19:03;;;;;;;5.50;2.10;;;;;;;15.27;100.00;101947.00;4976753;28;20212;-47
2023/08/18 03:21:28;;;;;;;3.53;2.22;;;;;;;15.28;100.00;101943.34;4976342;28;20178;-47
2023/08/18 03:23:55;;;;;;;2.20;1.65;;;;;;;15.30;100.00;101945.03;4960327;28;20177;-47
2023/08/18 03:26:21;;;;;;;6.50;2.53;;;;;;;15.27;100.00;101947.88;4969175;28;20186;-46
2023/08/18 03:28:46;;;;;;;3.60;2.20;;;;;;;15.30;100.00;101941.47;4981056;28;20531;-47
2023/08/18 03:31:12;;;;;;;4.03;2.03;;;;;;;15.34;100.00;101943.09;4976643;28;20262;-46
2023/08/18 03:33:38;;;;;;;3.15;1.90;;;;;;;15.37;100.00;101945.66;4963199;28;20186;-46
2023/08/18 03:36:07;;;;;;;4.70;2.60;;;;;;;15.32;100.00;101950.38;4959745;28;20679;-47
2023/08/18 03:38:33;;;;;;;4.78;2.38;;;;;;;15.27;100.00;101945.16;4978564;28;20217;-47
2023/08/18 03:41:06;;;;;;;4.32;2.10;;;;;;;15.36;100.00;101941.22;4979630;28;20216;-47
2023/08/18 03:43:35;;;;;;;4.70;2.25;;;;;;;15.40;100.00;101942.88;4969582;28;20547;-46
2023/08/18 03:46:22;;;;;;;4.25;2.10;;;;;;;15.45;100.00;101941.72;4985647;28;20197;-48
2023/08/18 03:48:50;;;;;;;5.18;2.05;;;;;;;15.51;100.00;101937.91;4972791;28;20209;-45
2023/08/18 03:51:16;;;;;;;3.50;2.33;;;;;;;15.40;100.00;101945.56;4976442;28;20213;-47
2023/08/18 03:53:43;;;;;;;6.75;2.42;;;;;;;15.39;100.00;101955.50;4974212;28;20668;-47
2023/08/18 03:56:09;;;;;;;4.38;2.25;;;;;;;15.44;100.00;101949.91;4978455;28;20577;-46
2023/08/18 03:58:35;;;;;;;7.97;2.83;;;;;;;15.45;100.00;101943.53;4951165;28;20231;-48
2023/08/18 04:01:08;;;;;;;7.10;2.75;;;;;;;15.47;100.00;101947.06;4975170;28;20182;-46
2023/08/18 04:03:36;;;;;;;4.18;2.50;;;;;;;15.48;100.00;101953.34;4963633;28;20561;-47
2023/08/18 04:06:03;;;;;;;8.20;2.95;;;;;;;15.40;100.00;101948.25;4962012;28;20181;-49
2023/08/18 04:08:32;;;;;;;7.97;2.53;;;;;;;15.42;100.00;101949.94;4970087;28;20244;-47
2023/08/18 04:10:59;;;;;;;5.47;2.83;;;;;;;15.43;100.00;101938.19;4970540;28;20233;-46
2023/08/18 04:13:24;;;;;;;10.38;2.92;;;;;;;15.44;100.00;101939.09;4980592;28;20189;-47
2023/08/18 04:15:51;;;;;;;6.78;3.13;;;;;;;15.44;100.00;101941.81;4969176;28;20568;-48
2023/08/18 04:18:16;;;;;;;6.25;3.13;;;;;;;15.47;100.00;101938.97;4967977;28;20210;-46
2023/08/18 04:20:42;;;;;;;5.90;3.47;;;;;;;15.47;100.00;101940.78;4983492;28;20189;-46
2023/08/18 04:23:07;;;;;;;3.80;3.13;;;;;;;15.42;100.00;101939.16;4967729;28;20197;-49
2023/08/18 04:25:33;;;;;;;7.00;3.30;;;;;;;15.50;100.00;101946.94;4962185;28;20201;-48
2023/08/18 04:27:58;;;;;;;5.40;3.15;;;;;;;15.53;100.00;101941.41;4967850;28;20185;-48
2023/08/18 04:30:25;;;;;;;7.30;3.53;;;;;;;15.54;100.00;101935.06;4963913;28;20338;-47
2023/08/18 04:32:50;;;;;;;6.70;3.05;;;;;;;15.54;100.00;101929.66;4963142;28;20228;-48
2023/08/18 04:35:16;;;;;;;7.85;2.92;;;;;;;15.54;100.00;101934.19;4962518;28;20722;-47
2023/08/18 04:37:43;;;;;;;5.18;3.45;;;;;;;15.55;100.00;101931.44;4964538;28;20186;-46
2023/08/18 04:40:09;;;;;;;6.90;3.03;;;;;;;15.58;100.00;101925.88;4979005;28;20243;-47
2023/08/18 04:42:35;;;;;;;5.70;3.28;;;;;;;15.56;100.00;101927.78;4968497;28;20251;-46
2023/08/18 04:45:00;;;;;;;11.52;3.60;;;;;;;15.60;100.00;101925.84;4965817;28;20188;-47
2023/08/18 04:47:27;;;;;;;11.13;3.80;;;;;;;15.60;100.00;101926.69;4970304;28;20320;-47
2023/08/18 04:49:53;;;;;;;6.70;3.72;;;;;;;15.59;100.00;101919.56;4963936;28;20201;-47
2023/08/18 04:52:18;;;;;;;7.13;2.97;;;;;;;15.73;100.00;101918.13;4962041;28;20186;-46
2023/08/18 04:54:44;;;;;;;10.80;3.83;;;;;;;15.61;100.00;101914.97;4977503;28;20286;-46
2023/08/18 04:57:10;;;;;;;9.00;3.60;;;;;;;15.63;100.00;101912.19;4981511;28;20193;-46
2023/08/18 04:59:36;;;;;;;9.55;3.55;;;;;;;15.71;100.00;101898.38;4984268;28;20256;-46
2023/08/18 05:02:04;;;;;;;9.18;3.03;;;;;;;15.74;100.00;101907.25;4969274;28;20240;-42
2023/08/18 05:04:29;;;;;;;6.80;3.22;;;;;;;15.72;100.00;101917.25;5003417;23;20249;-43
2023/08/18 05:06:55;;;;;;;6.35;3.70;;;;;;;15.72;100.00;101910.94;4954994;28;20731;-44
2023/08/18 05:09:21;;;;;;;7.68;4.15;;;;;;;15.73;100.00;101910.03;4957762;28;20317;-45
2023/08/18 05:11:46;;;;;;;7.22;3.90;;;;;;;15.79;100.00;101913.34;4957172;28;20289;-43
2023/08/18 05:14:12;;;;;;;9.07;4.00;;;;;;;15.79;100.00;101917.88;4959094;28;20253;-43
2023/08/18 05:16:37;;;;;;;5.45;3.92;;;;;;;15.80;100.00;101911.50;4958520;28;20179;-43
2023/08/18 05:19:03;;;;;;;9.45;3.50;;;;;;;15.83;100.00;101917.66;4960181;28;20277;-45
2023/08/18 05:21:28;;;;;;;15.43;4.07;;;;;;;15.82;100.00;101925.84;4960027;28;20186;-43
2023/08/18 05:23:54;;;;;;;6.05;3.63;;;;;;;15.84;100.00;101919.41;4959250;28;20171;-45
2023/08/18 05:26:20;;;;;;;10.48;3.83;;;;;;;15.80;100.00;101917.78;4956744;28;20187;-42
2023/08/18 05:28:47;;;;;;;10.82;4.45;;;;;;;15.85;100.00;101923.00;4961598;28;20677;-43
2023/08/18 05:31:14;;;;;;;5.53;3.40;;;;;;;15.90;100.00;101920.13;4957167;28;20209;-45
2023/08/18 05:33:40;;;;;;;7.47;3.85;;;;;;;15.91;100.00;101917.31;4957100;28;20245;-43
2023/08/18 05:36:07;;;;;;;10.38;3.85;;;;;;;15.92;100.00;101916.41;4959931;28;20175;-44
2023/08/18 05:38:32;;;;;;;9.25;4.05;;;;;;;15.98;100.00;101921.53;4962348;28;20221;-44
2023/08/18 05:41:13;;;;;;;6.03;4.00;;;;;;;15.98;100.00;101926.03;4956892;28;20178;-44
2023/08/18 05:43:41;;;;;;;6.30;3.55;;;;;;;15.99;100.00;101923.28;4958928;28;20189;-42
2023/08/18 05:46:07;;;;;;;8.43;3.25;;;;;;;16.08;100.00;101924.72;4960671;28;20186;-43
2023/08/18 05:48:33;;;;;;;8.07;3.17;;;;;;;16.06;100.00;101923.91;4957860;28;20277;-44
2023/08/18 05:51:02;;;;;;;9.57;3.40;;;;;;;16.01;100.00;101925.94;4960935;28;20601;-43
2023/08/18 05:53:30;;;;;;;9.40;3.17;;;;;;;16.05;100.00;101923.03;4960534;28;20181;-44
2023/08/18 05:55:55;;;;;;;8.40;3.67;;;;;;;16.09;100.00;101926.44;4956574;28;20278;-43
2023/08/18 05:58:21;;;;;;;5.22;2.83;;;;;;;16.14;100.00;101921.75;4960421;28;20277;-44
2023/08/18 06:00:49;;;;;;;6.53;3.22;;;;;;;16.13;100.00;101932.63;4965266;28;20303;-45
2023/08/18 06:03:16;;;;;;;9.60;3.30;;;;;;;16.15;100.00;101928.91;4962338;28;20197;-44
2023/08/18 06:05:43;;;;;;;7.70;3.20;;;;;;;16.14;100.00;101923.56;4954542;28;20185;-42
2023/08/18 06:08:09;;;;;;;6.55;2.97;;;;;;;16.16;100.00;101935.16;4956237;28;20209;-43
2023/08/18 06:10:34;;;;;;;10.38;3.10;;;;;;;16.16;100.00;101919.84;4959313;28;20206;-43
2023/08/18 06:13:00;;;;;;;7.38;3.03;;;;;;;16.16;100.00;101924.34;4952779;28;20201;-43
2023/08/18 06:15:25;;;;;;;6.32;3.00;;;;;;;16.25;100.00;101926.69;4960016;28;20170;-42
2023/08/18 06:17:50;;;;;;;10.00;3.38;;;;;;;16.23;100.00;101917.75;4957173;28;20187;-44
2023/08/18 06:20:16;;;;;;;11.50;3.50;;;;;;;16.24;100.00;101919.50;4956281;28;20269;-44
2023/08/18 06:22:42;;;;;;;5.40;3.03;;;;;;;16.28;100.00;101921.13;4960205;28;20175;-44
2023/08/18 06:25:08;;;;;;;10.10;3.20;;;;;;;16.28;100.00;101923.81;4953291;28;20645;-43
2023/08/18 06:27:34;;;;;;;10.15;3.53;;;;;;;16.35;100.00;101922.59;4962040;28;20186;-43
2023/08/18 06:29:59;;;;;;;8.98;3.38;;;;;;;16.33;100.00;101932.59;4962381;28;20546;-45
2023/08/18 06:32:25;;;;;;;7.38;3.08;;;;;;;16.37;100.00;101925.25;4960891;28;20260;-45
2023/08/18 06:34:50;;;;;;;9.82;3.58;;;;;;;16.46;100.00;101928.44;4955580;28;20185;-44
2023/08/18 06:37:16;;;;;;;7.68;3.10;;;;;;;16.47;100.00;101918.47;4953644;28;20195;-42
2023/08/18 06:39:41;;;;;;;6.32;2.95;;;;;;;16.57;100.00;101914.38;4956365;28;20693;-44
2023/08/18 06:42:07;;;;;;;10.30;3.30;;;;;;;16.51;100.00;101916.47;4959862;28;20202;-44
2023/08/18 06:44:34;;;;;;;9.88;3.70;;;;;;;16.56;100.00;101917.19;4956286;28;20257;-43
2023/08/18 06:47:00;;;;;;;12.35;3.53;;;;;;;16.55;100.00;101912.69;4959600;28;20194;-44
2023/08/18 06:49:26;;;;;;;7.85;3.40;;;;;;;16.63;100.00;101900.56;4956428;28;20225;-43
2023/08/18 06:51:51;;;;;;;10.95;3.58;;;;;;;16.62;100.00;101904.25;4963194;28;20224;-45
2023/08/18 06:54:17;;;;;;;8.10;3.88;;;;;;;16.59;100.00;101901.66;4961903;28;20190;-46
2023/08/18 06:56:43;;;;;;;15.00;3.83;;;;;;;16.58;100.00;101901.75;4958055;28;20691;-44
2023/08/18 06:59:09;;;;;;;8.60;3.60;;;;;;;16.62;100.00;101906.94;4957990;28;20195;-43
2023/08/18 07:01:34;;;;;;;10.95;3.33;;;;;;;16.82;100.00;101895.22;4955051;28;20663;-46
2023/08/18 07:04:00;;;;;;;6.53;3.63;;;;;;;16.76;100.00;101898.16;4963461;28;20644;-46
2023/08/18 07:06:25;;;;;;;8.35;3.53;;;;;;;16.74;100.00;101900.06;4962301;28;20568;-45
2023/08/18 07:08:51;;;;;;;10.02;3.45;;;;;;;16.78;100.00;101898.09;4957435;28;20198;-46
2023/08/18 07:11:16;;;;;;;13.55;3.60;;;;;;;16.83;100.00;101891.53;4958364;28;20300;-43
2023/08/18 07:13:42;;;;;;;7.78;3.60;;;;;;;16.83;100.00;101899.66;4958261;28;20203;-43
2023/08/18 07:16:08;;;;;;;8.63;3.78;;;;;;;16.80;100.00;101888.13;4959474;28;20175;-44
2023/08/18 07:18:33;;;;;;;12.43;3.97;;;;;;;16.81;100.00;101890.72;4960113;28;20658;-44
2023/08/18 07:20:59;;;;;;;9.88;4.10;;;;;;;16.85;100.00;101894.19;4964190;28;20170;-44
2023/08/18 07:23:25;;;;;;;8.50;3.88;;;;;;;16.88;100.00;101896.75;4960513;28;20190;-43
2023/08/18 07:25:50;;;;;;;8.38;3.83;;;;;;;16.94;100.00;101888.31;4955627;28;20202;-46
2023/08/18 07:28:16;;;;;;;10.68;4.38;;;;;;;16.99;100.00;101896.22;4956748;28;20202;-44
2023/08/18 07:30:41;;;;;;;12.70;4.18;;;;;;;17.05;100.00;101887.81;4963305;28;20201;-45
2023/08/18 07:33:07;;;;;;;9.30;3.63;;;;;;;17.15;100.00;101886.41;4966208;28;20602;-44
2023/08/18 07:35:32;;;;;;;9.38;4.22;;;;;;;17.15;100.00;101881.00;4961391;28;20201;-43
2023/08/18 07:37:58;;;;;;;9.90;3.63;;;;;;;17.27;100.00;101891.25;4958399;28;20253;-46
2023/08/18 07:40:23;;;;;;;9.48;3.92;;;;;;;17.31;100.00;101889.25;4960052;28;20171;-45
2023/08/18 07:42:49;;;;;;;8.27;3.60;;;;;;;17.32;100.00;101892.81;4961175;28;20171;-43
2023/08/18 07:45:14;;;;;;;6.75;3.50;;;;;;;17.38;100.00;101895.22;4959273;28;20186;-44
2023/08/18 07:47:42;;;;;;;11.60;4.43;;;;;;;17.42;100.00;101883.28;4964169;28;20175;-42
2023/08/18 07:50:10;;;;;;;12.82;4.40;;;;;;;17.46;100.00;101898.44;4962435;28;20190;-43
2023/08/18 07:52:36;;;;;;;14.02;4.25;;;;;;;17.42;100.00;101891.41;4956346;28;20703;-46
2023/08/18 07:55:05;;;;;;;13.13;4.53;;;;;;;17.43;100.00;101893.19;4954250;28;20653;-43
2023/08/18 07:57:31;;;;;;;12.27;4.40;;;;;;;17.44;100.00;101897.63;4963720;28;20178;-44
2023/08/18 07:59:57;;;;;;;12.38;4.75;;;;;;;17.57;100.00;101895.19;4960996;28;20202;-44
2023/08/18 08:02:23;;;;;;;11.50;4.95;;;;;;;17.44;100.00;101895.81;4960122;28;20197;-43
2023/08/18 08:04:50;;;;;;;10.55;4.55;;;;;;;17.60;100.00;101895.03;4961078;28;20178;-44
2023/08/18 08:07:16;;;;;;;10.80;4.43;;;;;;;17.54;100.00;101903.50;4960335;28;20660;-46
2023/08/18 08:09:41;;;;;;;13.48;4.72;;;;;;;17.61;100.00;101894.97;4963332;28;20305;-45
2023/08/18 08:12:07;;;;;;;11.25;4.45;;;;;;;17.65;100.00;101892.97;4959494;28;20197;-44
2023/08/18 08:14:32;;;;;;;9.85;4.45;;;;;;;17.66;100.00;101900.13;4957907;28;20297;-45
2023/08/18 08:16:58;;;;;;;13.27;4.97;;;;;;;17.65;100.00;101903.81;4958351;28;20603;-45
2023/08/18 08:19:24;;;;;;;11.25;4.07;;;;;;;17.66;100.00;101901.00;4959291;28;20209;-42
2023/08/18 08:21:50;;;;;;;9.75;4.57;;;;;;;17.56;100.00;101898.84;4958170;28;20179;-43
2023/08/18 08:24:16;;;;;;;11.43;5.25;;;;;;;17.73;100.00;101900.69;4961382;28;20190;-45
2023/08/18 08:26:41;;;;;;;13.75;5.07;;;;;;;17.65;100.00;101901.97;4956818;28;20186;-45
2023/08/18 08:29:06;;;;;;;12.15;5.65;;;;;;;17.61;100.00;101903.09;4967281;28;20221;-44
2023/08/18 08:31:32;;;;;;;11.40;4.78;;;;;;;17.66;100.00;101901.00;4962362;28;20537;-45
2023/08/18 08:33:58;;;;;;;9.93;5.13;;;;;;;17.60;100.00;101903.16;4962783;28;20540;-45
2023/08/18 08:36:23;;;;;;;9.63;4.70;;;;;;;17.70;100.00;101901.75;4958591;28;20264;-44
2023/08/18 08:38:49;;;;;;;10.15;4.78;;;;;;;17.78;100.00;101898.66;4957140;28;20198;-44
2023/08/18 08:41:14;;;;;;;8.20;4.78;;;;;;;17.70;100.00;101910.75;4959989;28;20185;-44
2023/08/18 08:43:40;;;;;;;12.95;5.28;;;;;;;17.73;100.00;101901.56;4961598;28;20476;-44
2023/08/18 08:46:07;;;;;;;9.98;5.43;;;;;;;17.69;100.00;101903.59;4956268;28;20190;-41
2023/08/18 08:48:38;;;;;;;11.82;5.38;;;;;;;17.67;100.00;101907.34;4961625;28;20202;-45
2023/08/18 08:51:04;;;;;;;9.43;4.72;;;;;;;17.71;100.00;101904.38;4962227;28;20228;-45
2023/08/18 08:53:42;;;;;;;9.35;5.05;;;;;;;17.79;100.00;101909.41;4956773;28;20659;-42
2023/08/18 08:56:09;;;;;;;11.35;5.80;;;;;;;17.80;100.00;101905.75;4958717;28;20182;-45
2023/08/18 08:58:35;;;;;;;7.85;5.30;;;;;;;17.82;100.00;101902.97;4962227;28;20664;-42
2023/08/18 09:01:01;;;;;;;8.18;5.32;;;;;;;17.85;100.00;101903.69;4957883;28;20187;-43
2023/08/18 09:03:30;;;;;;;9.05;5.38;;;;;;;17.86;100.00;101905.47;4957127;28;20684;-44
2023/08/18 09:05:56;;;;;;;11.27;5.78;;;;;;;17.93;100.00;101900.59;4955232;28;20270;-45
2023/08/18 09:08:21;;;;;;;13.55;5.57;;;;;;;17.96;100.00;101894.13;4960441;28;20760;-45
2023/08/18 09:10:47;;;;;;;8.00;5.75;;;;;;;17.93;100.00;101900.59;4946461;28;20222;-44
2023/08/18 09:13:13;;;;;;;10.02;5.70;;;;;;;17.98;100.00;101897.66;4955761;28;20210;-44
2023/08/18 09:15:44;;;;;;;10.52;6.15;;;;;;;17.97;100.00;101894.03;4953752;28;20218;-45
2023/08/18 09:18:11;;;;;;;13.05;6.25;;;;;;;18.11;100.00;101887.91;4961003;28;20277;-43
2023/08/18 09:20:37;;;;;;;10.20;6.03;;;;;;;17.99;100.00;101891.25;4958366;28;20181;-48
2023/08/18 09:23:03;;;;;;;14.20;6.20;;;;;;;17.97;100.00;101887.75;4961198;28;20568;-46
2023/08/18 09:25:30;;;;;;;11.50;6.40;;;;;;;18.02;100.00;101877.56;4960980;28;20178;-48
2023/08/18 09:27:56;;;;;;;12.90;6.25;;;;;;;18.09;100.00;101878.97;4959709;28;20186;-46
2023/08/18 09:30:23;;;;;;;9.50;5.78;;;;;;;17.95;100.00;101868.88;4940867;28;20267;-47
2023/08/18 09:32:49;;;;;;;15.02;7.00;;;;;;;17.88;100.00;101872.84;4960333;28;20190;-46
2023/08/18 09:35:19;;;;;;;12.40;6.38;;;;;;;18.01;100.00;101873.06;4957943;28;20684;-46
2023/08/18 09:37:53;;;;;;;11.88;6.60;;;;;;;18.04;100.00;101876.50;4957734;28;20237;-46
2023/08/18 09:40:19;;;;;;;11.05;6.40;;;;;;;18.01;100.00;101879.38;4953065;28;20667;-47
2023/08/18 09:42:45;;;;;;;11.27;6.22;;;;;;;18.05;100.00;101871.94;4959349;28;20178;-47
2023/08/18 09:45:11;;;;;;;10.43;6.20;;;;;;;18.17;100.00;101873.13;4958638;28;20644;-46
2023/08/18 09:47:38;;;;;;;13.40;7.03;;;;;;;18.21;100.00;101870.16;4959190;28;20229;-46
2023/08/18 09:50:05;;;;;;;12.50;6.50;;;;;;;18.20;100.00;101873.84;4960479;28;20202;-46
2023/08/18 09:52:34;;;;;;;11.38;6.45;;;;;;;18.17;100.00;101859.56;4958399;28;20242;-47
2023/08/18 09:55:09;;;;;;;12.73;5.35;;;;;;;18.31;100.00;101863.28;4959367;28;20695;-47
2023/08/18 09:58:14;;;;;;;11.18;6.32;;;;;;;18.26;100.00;101856.38;4958703;28;20538;-47
2023/08/18 10:00:43;;;;;;;10.18;5.40;;;;;;;18.36;100.00;101863.03;4880249;29;20217;-47
2023/08/18 10:03:16;;;;;;;14.20;6.63;;;;;;;18.28;100.00;101860.75;4945399;28;20657;-46
2023/08/18 10:05:43;;;;;;;13.85;6.68;;;;;;;18.30;100.00;101864.25;4957244;28;20341;-45
2023/08/18 10:08:09;;;;;;;13.90;5.75;;;;;;;18.40;100.00;101872.75;4957916;28;20210;-46
2023/08/18 10:10:36;;;;;;;15.30;6.47;;;;;;;18.32;100.00;101873.19;4958226;28;20226;-48
2023/08/18 10:13:03;;;;;;;16.80;6.70;;;;;;;18.34;100.00;101864.94;4956999;28;20182;-47
2023/08/18 10:15:29;;;;;;;11.50;6.13;;;;;;;18.37;100.00;101867.53;4956836;28;20236;-48
2023/08/18 10:17:56;;;;;;;18.60;6.32;;;;;;;18.31;100.00;101859.72;4956211;28;20671;-47
2023/08/18 10:20:25;;;;;;;13.27;6.80;;;;;;;18.39;100.00;101873.75;4957071;28;20187;-47
2023/08/18 10:22:51;;;;;;;9.75;5.90;;;;;;;18.36;100.00;101862.16;4954838;28;20552;-46
2023/08/18 10:25:31;;;;;;;14.45;6.78;;;;;;;18.41;100.00;101870.91;4957971;28;20194;-45
2023/08/18 10:27:57;;;;;;;10.05;6.15;;;;;;;18.53;100.00;101859.41;4957245;28;20686;-48
2023/08/18 10:30:24;;;;;;;12.18;6.35;;;;;;;18.56;100.00;101850.22;4956224;28;20206;-47
2023/08/18 10:33:00;;;;;;;11.85;6.68;;;;;;;18.42;100.00;101854.56;4961979;28;20170;-47
2023/08/18 10:35:28;;;;;;;14.38;6.30;;;;;;;18.42;100.00;101853.69;4949531;28;20202;-45
2023/08/18 10:38:05;;;;;;;16.02;5.72;;;;;;;18.52;100.00;101850.38;4960299;28;20182;-46
2023/08/18 10:40:36;;;;;;;10.73;6.00;;;;;;;18.60;100.00;101857.22;4952472;28;20213;-47
2023/08/18 10:43:12;;;;;;;13.23;6.45;;;;;;;18.57;100.00;101849.25;4955557;28;20181;-47
2023/08/18 10:45:39;;;;;;;16.55;6.80;;;;;;;18.53;100.00;101853.97;4957415;28;20190;-47
2023/08/18 10:48:05;;;;;;;9.40;6.20;;;;;;;18.55;100.00;101851.19;4954893;28;20580;-46
2023/08/18 10:50:34;;;;;;;10.93;5.97;;;;;;;18.61;100.00;101848.13;4957634;28;20229;-47
2023/08/18 10:53:01;;;;;;;9.48;5.70;;;;;;;18.68;100.00;101853.13;4955765;28;20229;-49
2023/08/18 10:55:28;;;;;;;11.70;6.07;;;;;;;18.74;100.00;101846.47;4956282;28;20261;-49
2023/08/18 10:57:54;;;;;;;14.70;6.80;;;;;;;18.70;100.00;101853.91;4957761;28;20190;-47
2023/08/18 11:00:20;;;;;;;8.80;5.22;;;;;;;18.68;100.00;101849.53;4955630;28;20633;-47
2023/08/18 11:02:49;;;;;;;11.48;5.32;;;;;;;18.68;100.00;101842.25;4960750;28;20342;-42
2023/08/18 11:05:19;;;;;;;9.20;5.65;;;;;;;18.72;100.00;101849.28;4962006;23;20257;-45
2023/08/18 11:07:45;;;;;;;9.82;5.90;;;;;;;18.71;100.00;101846.63;4961020;28;20198;-44
2023/08/18 11:10:22;;;;;;;8.07;4.80;;;;;;;18.90;100.00;101852.81;4957248;28;20299;-43
2023/08/18 11:12:49;;;;;;;10.43;4.85;;;;;;;18.97;100.00;101853.34;4946723;28;20185;-44